Terminal Aerodrome Forecast
Issued by NWS Charleston, WV

Current Version | Previous Version | Graphics & Text | Print | Product List | Glossary On
Versions: 1 2 3 4 5 6 7 8 9 10 11 12 13 14 15 16 17 18 19 20 21 22 23 24 25 26 27 28 29 30
000
FTUS41 KRLX 172100 AAA
TAFBKW
TAF AMD
KBKW 172159Z 1722/1818 VRB03KT P6SM SCT040 OVC060
      TEMPO 1723/1801 5SM SHRA BR BKN035
     FM180200 14003KT P6SM BKN050
     FM180800 15005KT 6SM BR VCTS BKN040CB
     FM181100 17006KT 3SM SHRA BR VCTS SCT012 OVC025CB
     FM181400 17007KT 2SM TSRA BR SCT008 OVC020CB=

USA.gov is the U.S. government's official web portal to all federal, state and local government web resources and services.